Time,TemperatureF,DewpointF,PressureIn,WindDirection,WindDirectionDegrees,WindSpeedMPH,WindSpeedGustMPH,Humidity,HourlyPrecipIn,Conditions,Clouds,dailyrainin,SoftwareType,DateUTC
2014-01-14 00:22:00,52.0,45.0,29.96,SSW,198,3.0,7.0,77,0.00,,,0.00,,2014-01-14 05:22:00,
2014-01-14 00:53:00,52.0,46.0,29.95,SSE,149,2.0,5.0,79,0.00,,,0.00,,2014-01-14 05:53:00,
2014-01-14 01:12:00,52.0,46.0,29.92,SE,143,2.0,4.0,80,0.00,,,0.00,,2014-01-14 06:12:00,
2014-01-14 01:22:00,51.0,46.0,29.91,SSE,150,1.0,4.0,83,0.00,,,0.00,,2014-01-14 06:22:00,
2014-01-14 01:52:00,50.0,47.0,29.90,SE,145,2.0,3.0,88,0.01,,,0.01,,2014-01-14 06:52:00,
2014-01-14 02:12:00,50.0,47.0,29.90,South,170,2.0,6.0,89,0.02,,,0.02,,2014-01-14 07:12:00,
2014-01-14 02:22:00,49.0,46.0,29.87,ESE,103,1.0,2.0,91,0.04,,,0.04,,2014-01-14 07:22:00,
2014-01-14 02:42:00,49.0,47.0,29.90,South,177,0.0,1.0,93,0.05,,,0.05,,2014-01-14 07:42:00,
2014-01-14 02:52:00,49.0,47.0,29.89,SSW,204,2.0,5.0,94,0.06,,,0.07,,2014-01-14 07:52:00,
2014-01-14 03:11:00,50.0,49.0,29.89,SSW,203,3.0,4.0,95,0.06,,,0.08,,2014-01-14 08:11:00,
2014-01-14 03:22:00,50.0,49.0,29.89,WSW,239,1.0,3.0,95,0.04,,,0.08,,2014-01-14 08:22:00,
2014-01-14 03:42:00,51.0,49.0,29.88,SSE,167,2.0,6.0,94,0.03,,,0.08,,2014-01-14 08:42:00,
2014-01-14 03:53:00,50.0,48.0,29.87,SE,146,1.0,3.0,94,0.01,,,0.08,,2014-01-14 08:53:00,
2014-01-14 04:27:00,50.0,49.0,29.86,SSE,148,1.0,2.0,95,0.00,,,0.08,,2014-01-14 09:27:00,
2014-01-14 04:47:00,50.0,49.0,29.85,SSE,153,0.0,1.0,96,0.00,,,0.08,,2014-01-14 09:47:00,
2014-01-14 04:57:00,50.0,49.0,29.86,SSE,153,0.0,2.0,96,0.00,,,0.08,,2014-01-14 09:57:00,
2014-01-14 05:25:00,49.0,48.0,29.86,SSE,148,1.0,3.0,96,0.01,,,0.09,,2014-01-14 10:25:00,
2014-01-14 05:47:00,49.0,48.0,29.84,SE,134,2.0,4.0,96,0.01,,,0.09,,2014-01-14 10:47:00,
2014-01-14 05:57:00,49.0,48.0,29.83,East,97,0.0,2.0,97,0.01,,,0.09,,2014-01-14 10:57:00,
2014-01-14 06:07:00,49.0,48.0,29.83,East,97,0.0,2.0,97,0.01,,,0.09,,2014-01-14 11:07:00,
2014-01-14 06:26:00,49.0,48.0,29.83,South,169,0.0,2.0,97,0.00,,,0.09,,2014-01-14 11:26:00,
2014-01-14 06:43:00,49.0,48.0,29.83,SSW,212,0.0,2.0,97,0.00,,,0.09,,2014-01-14 11:43:00,
2014-01-14 06:52:00,49.0,48.0,29.82,SSW,212,0.0,1.0,97,0.00,,,0.09,,2014-01-14 11:52:00,
2014-01-14 07:11:00,49.0,48.0,29.80,ESE,116,1.0,1.0,97,0.00,,,0.09,,2014-01-14 12:11:00,
2014-01-14 07:22:00,49.0,48.0,29.81,ESE,115,0.0,1.0,97,0.01,,,0.10,,2014-01-14 12:22:00,
2014-01-14 07:52:00,50.0,49.0,29.80,South,181,1.0,3.0,97,0.01,,,0.10,,2014-01-14 12:52:00,
2014-01-14 08:11:00,50.0,49.0,29.81,SE,129,1.0,2.0,97,0.01,,,0.10,,2014-01-14 13:11:00,
2014-01-14 08:22:00,50.0,49.0,29.81,SSE,148,0.0,2.0,97,0.00,,,0.10,,2014-01-14 13:22:00,
2014-01-14 08:42:00,50.0,49.0,29.82,South,183,1.0,2.0,97,0.00,,,0.10,,2014-01-14 13:42:00,
2014-01-14 08:52:00,50.0,49.0,29.81,SSW,207,0.0,2.0,97,0.00,,,0.10,,2014-01-14 13:52:00,
2014-01-14 09:11:00,50.0,49.0,29.81,ESE,121,1.0,1.0,97,0.00,,,0.10,,2014-01-14 14:11:00,
2014-01-14 09:22:00,50.0,49.0,29.80,SE,139,0.0,1.0,97,0.00,,,0.10,,2014-01-14 14:22:00,
2014-01-14 09:42:00,51.0,50.0,29.81,SSW,212,1.0,3.0,98,0.00,,,0.10,,2014-01-14 14:42:00,
2014-01-14 09:52:00,51.0,50.0,29.80,SE,126,2.0,3.0,98,0.00,,,0.10,,2014-01-14 14:52:00,
2014-01-14 10:22:00,51.0,50.0,29.80,SE,131,2.0,3.0,98,0.00,,,0.10,,2014-01-14 15:22:00,
2014-01-14 10:43:00,51.0,50.0,29.80,SE,146,2.0,4.0,98,0.00,,,0.10,,2014-01-14 15:43:00,
2014-01-14 10:53:00,52.0,51.0,29.80,SSW,205,2.0,4.0,98,0.00,,,0.10,,2014-01-14 15:53:00,
2014-01-14 11:13:00,52.0,51.0,29.79,SSW,200,2.0,3.0,98,0.01,,,0.11,,2014-01-14 16:13:00,
2014-01-14 11:23:00,52.0,51.0,29.78,SW,217,2.0,4.0,98,0.01,,,0.11,,2014-01-14 16:23:00,
2014-01-14 11:42:00,52.0,51.0,29.79,SW,235,2.0,5.0,98,0.01,,,0.11,,2014-01-14 16:42:00,
2014-01-14 11:53:00,52.0,51.0,29.79,SSW,210,4.0,6.0,98,0.01,,,0.11,,2014-01-14 16:53:00,
2014-01-14 12:12:00,52.0,51.0,29.78,WNW,297,3.0,6.0,98,0.01,,,0.12,,2014-01-14 17:12:00,
2014-01-14 12:22:00,51.0,50.0,29.79,NW,316,7.0,11.0,97,0.02,,,0.13,,2014-01-14 17:22:00,
2014-01-14 12:53:00,50.0,49.0,29.80,West,280,2.0,7.0,97,0.09,,,0.20,,2014-01-14 17:53:00,
2014-01-14 13:12:00,50.0,49.0,29.80,WSW,256,3.0,10.0,97,0.10,,,0.22,,2014-01-14 18:12:00,
2014-01-14 13:22:00,50.0,49.0,29.81,WNW,300,3.0,7.0,97,0.11,,,0.24,,2014-01-14 18:22:00,
2014-01-14 13:43:00,50.0,49.0,29.80,WNW,302,3.0,10.0,97,0.07,,,0.25,,2014-01-14 18:43:00,
2014-01-14 13:52:00,50.0,49.0,29.81,NW,319,2.0,8.0,97,0.05,,,0.25,,2014-01-14 18:52:00,
2014-01-14 14:11:00,50.0,49.0,29.79,WNW,285,2.0,7.0,97,0.05,,,0.27,,2014-01-14 19:11:00,
2014-01-14 14:22:00,51.0,50.0,29.80,West,271,4.0,8.0,97,0.03,,,0.27,,2014-01-14 19:22:00,
2014-01-14 14:52:00,51.0,49.0,29.83,NNE,22,3.0,7.0,94,0.03,,,0.28,,2014-01-14 19:52:00,
2014-01-14 15:11:00,52.0,49.0,29.82,NW,305,3.0,6.0,90,0.01,,,0.28,,2014-01-14 20:11:00,
2014-01-14 15:22:00,53.0,50.0,29.83,West,277,3.0,6.0,88,0.01,,,0.28,,2014-01-14 20:22:00,
2014-01-14 15:42:00,53.0,49.0,29.84,NW,318,3.0,6.0,87,0.00,,,0.28,,2014-01-14 20:42:00,
2014-01-14 15:52:00,54.0,49.0,29.85,West,274,4.0,7.0,83,0.00,,,0.28,,2014-01-14 20:52:00,
2014-01-14 16:22:00,54.0,48.0,29.86,West,260,3.0,8.0,81,0.00,,,0.28,,2014-01-14 21:22:00,
2014-01-14 16:43:00,54.0,48.0,29.88,West,273,2.0,5.0,79,0.00,,,0.28,,2014-01-14 21:43:00,
2014-01-14 16:53:00,54.0,48.0,29.87,WNW,282,0.0,4.0,81,0.00,,,0.28,,2014-01-14 21:53:00,
2014-01-14 17:13:00,53.0,47.0,29.88,WNW,302,0.0,3.0,81,0.00,,,0.28,,2014-01-14 22:13:00,
2014-01-14 17:23:00,53.0,47.0,29.89,West,270,2.0,4.0,81,0.00,,,0.28,,2014-01-14 22:23:00,
2014-01-14 17:42:00,51.0,46.0,29.89,WNW,300,1.0,2.0,84,0.00,,,0.28,,2014-01-14 22:42:00,
2014-01-14 17:52:00,50.0,46.0,29.90,SW,229,1.0,2.0,86,0.00,,,0.28,,2014-01-14 22:52:00,
2014-01-14 18:12:00,48.0,45.0,29.90,SW,229,0.0,0.0,88,0.00,,,0.28,,2014-01-14 23:12:00,
2014-01-14 18:22:00,47.0,45.0,29.90,SW,229,1.0,1.0,92,0.00,,,0.28,,2014-01-14 23:22:00,
2014-01-14 18:42:00,46.0,44.0,29.91,SW,228,1.0,1.0,93,0.00,,,0.28,,2014-01-14 23:42:00,
2014-01-14 18:53:00,46.0,44.0,29.91,SW,228,1.0,1.0,94,0.00,,,0.28,,2014-01-14 23:53:00,
2014-01-14 19:22:00,46.0,45.0,29.93,SW,235,0.0,1.0,95,0.00,,,0.28,,2014-01-15 00:22:00,
2014-01-14 19:42:00,45.0,44.0,29.93,SW,235,0.0,0.0,95,0.00,,,0.28,,2014-01-15 00:42:00,
2014-01-14 19:52:00,45.0,44.0,29.94,SW,235,0.0,1.0,96,0.00,,,0.28,,2014-01-15 00:52:00,
2014-01-14 20:11:00,43.0,42.0,29.93,SW,235,0.0,0.0,95,0.00,,,0.28,,2014-01-15 01:11:00,
2014-01-14 20:22:00,42.0,41.0,29.93,SW,235,0.0,1.0,96,0.00,,,0.28,,2014-01-15 01:22:00,
2014-01-14 20:42:00,42.0,41.0,29.94,SW,235,0.0,1.0,97,0.00,,,0.28,,2014-01-15 01:42:00,
2014-01-14 20:52:00,44.0,43.0,29.95,SW,235,1.0,1.0,98,0.00,,,0.28,,2014-01-15 01:52:00,
2014-01-14 21:22:00,44.0,43.0,29.96,WSW,243,1.0,2.0,98,0.00,,,0.28,,2014-01-15 02:22:00,
2014-01-14 21:53:00,45.0,44.0,29.96,SSW,207,0.0,2.0,97,0.00,,,0.28,,2014-01-15 02:53:00,
2014-01-14 22:22:00,45.0,44.0,29.97,SSW,207,1.0,1.0,97,0.00,,,0.28,,2014-01-15 03:22:00,
2014-01-14 22:43:00,45.0,44.0,29.97,SW,217,2.0,2.0,98,0.00,,,0.28,,2014-01-15 03:43:00,
2014-01-14 22:53:00,44.0,43.0,29.97,South,181,0.0,1.0,97,0.00,,,0.28,,2014-01-15 03:53:00,
2014-01-14 23:13:00,44.0,43.0,29.96,SSW,204,0.0,2.0,98,0.00,,,0.28,,2014-01-15 04:13:00,
2014-01-14 23:23:00,44.0,43.0,29.97,SSW,194,0.0,1.0,97,0.00,,,0.28,,2014-01-15 04:23:00,
2014-01-14 23:42:00,44.0,43.0,29.97,South,186,1.0,2.0,98,0.00,,,0.28,,2014-01-15 04:42:00,
2014-01-14 23:53:00,43.0,42.0,29.96,ESE,122,1.0,2.0,97,0.00,,,0.28,,2014-01-15 04:53:00,